createdAt,value
2023-02-14T00:00:13.232Z,88.67
2023-02-14T00:02:39.933Z,78.57
2023-02-14T00:05:06.902Z,88.03
2023-02-14T00:07:33.556Z,87.00
2023-02-14T00:10:00.220Z,89.60
2023-02-14T00:12:26.936Z,85.63
2023-02-14T00:15:12.072Z,89.07
2023-02-14T00:17:38.737Z,82.50
2023-02-14T00:20:06.189Z,92.13
2023-02-14T00:22:32.854Z,87.33
2023-02-14T00:24:59.526Z,89.07
2023-02-14T00:27:26.311Z,88.67
2023-02-14T00:29:54.745Z,83.53
2023-02-14T00:32:21.402Z,76.00
2023-02-14T00:34:48.069Z,94.63
2023-02-14T00:37:14.738Z,86.27
2023-02-14T00:39:41.406Z,84.17
2023-02-14T00:42:08.103Z,85.37
2023-02-14T00:44:34.771Z,84.77
2023-02-14T00:47:01.440Z,93.33
2023-02-14T00:49:28.358Z,96.30
2023-02-14T00:51:55.047Z,89.00
2023-02-14T00:54:21.805Z,90.00
2023-02-14T00:56:48.484Z,94.70
2023-02-14T00:59:15.388Z,101.30
2023-02-14T01:01:42.126Z,90.60
2023-02-14T01:04:09.558Z,91.20
2023-02-14T01:06:36.309Z,85.90
2023-02-14T01:09:03.501Z,89.07
2023-02-14T01:11:30.491Z,95.97
2023-02-14T01:13:58.378Z,90.17
2023-02-14T01:16:27.585Z,86.57
2023-02-14T01:18:54.513Z,92.70
2023-02-14T01:21:26.772Z,87.67
2023-02-14T01:23:55.716Z,90.43
2023-02-14T01:26:23.382Z,94.13
2023-02-14T01:28:50.353Z,93.33
2023-02-14T01:31:19.963Z,88.70
2023-02-14T01:33:48.655Z,83.60
2023-02-14T01:36:27.620Z,92.07
2023-02-14T01:38:57.356Z,92.87
2023-02-14T01:41:25.405Z,93.30
2023-02-14T01:44:01.160Z,92.57
2023-02-14T01:46:31.562Z,78.93
2023-02-14T01:49:07.235Z,84.10
2023-02-14T01:51:36.284Z,86.70
2023-02-14T01:54:05.879Z,89.00
2023-02-14T01:56:41.604Z,91.40
2023-02-14T01:59:12.446Z,87.77
2023-02-14T02:01:40.174Z,82.63
2023-02-14T02:04:15.894Z,82.80
2023-02-14T02:06:46.853Z,70.40
2023-02-14T02:09:44.114Z,69.97
2023-02-14T02:12:10.866Z,73.30
2023-02-14T02:14:37.917Z,64.03
2023-02-14T02:17:52.716Z,68.03
2023-02-14T02:20:32.772Z,64.33
2023-02-14T02:23:21.159Z,74.37
2023-02-14T02:26:09.823Z,61.73
2023-02-14T02:29:21.798Z,73.97
2023-02-14T02:32:31.626Z,70.20
2023-02-14T02:35:32.091Z,65.10
2023-02-14T02:38:17.154Z,65.50
2023-02-14T02:41:08.221Z,65.50
2023-02-14T02:44:06.164Z,65.40
2023-02-14T02:46:47.808Z,67.10
2023-02-14T02:49:40.733Z,65.83
2023-02-14T02:52:41.351Z,68.63
2023-02-14T02:55:19.862Z,67.90
2023-02-14T02:57:48.614Z,67.43
2023-02-14T03:00:17.376Z,66.33
2023-02-14T03:03:11.372Z,73.60
2023-02-14T03:05:38.432Z,69.13
2023-02-14T03:08:05.720Z,68.00
2023-02-14T03:10:37.501Z,71.30
2023-02-14T03:13:45.225Z,70.47
2023-02-14T03:16:20.868Z,67.47
2023-02-14T03:18:53.622Z,78.07
2023-02-14T03:21:23.058Z,67.70
2023-02-14T03:23:57.175Z,68.23
2023-02-14T03:26:51.616Z,71.87
2023-02-14T03:30:05.701Z,69.93
2023-02-14T03:32:48.465Z,69.00
2023-02-14T03:35:25.923Z,72.87
2023-02-14T03:38:08.888Z,75.63
2023-02-14T03:40:54.642Z,71.10
2023-02-14T03:43:37.389Z,70.57
2023-02-14T03:46:25.048Z,74.87
2023-02-14T03:48:54.909Z,70.80
2023-02-14T03:51:23.653Z,69.57
2023-02-14T03:53:56.165Z,74.17
2023-02-14T03:56:34.630Z,69.67
2023-02-14T03:59:08.862Z,72.67
2023-02-14T04:01:59.423Z,67.17
2023-02-14T04:04:30.928Z,68.50
2023-02-14T04:06:57.690Z,70.63
2023-02-14T04:09:24.604Z,70.47
2023-02-14T04:11:51.374Z,68.83
2023-02-14T04:14:18.415Z,62.80
2023-02-14T04:17:03.439Z,70.10
2023-02-14T04:22:07.825Z,66.90
2023-02-14T04:24:34.571Z,65.30
2023-02-14T04:27:10.901Z,65.83
2023-02-14T04:29:42.076Z,69.07
2023-02-14T04:32:13.854Z,71.13
2023-02-14T04:34:40.887Z,67.50
2023-02-14T04:37:08.143Z,68.67
2023-02-14T04:39:35.228Z,71.00
2023-02-14T04:42:02.972Z,69.40
2023-02-14T04:44:29.757Z,68.97
2023-02-14T04:46:56.522Z,72.10
2023-02-14T04:49:23.314Z,79.40
2023-02-14T04:51:50.026Z,76.87
2023-02-14T04:54:16.795Z,82.40
2023-02-14T04:56:43.705Z,79.17
2023-02-14T04:59:10.543Z,82.93
2023-02-14T05:01:37.380Z,76.17
2023-02-14T05:04:04.307Z,91.37
2023-02-14T05:06:31.205Z,92.07
2023-02-14T05:08:59.637Z,78.60
2023-02-14T05:11:27.731Z,86.50
2023-02-14T05:13:54.984Z,76.50
2023-02-14T05:16:21.795Z,79.60
2023-02-14T05:18:48.516Z,75.30
2023-02-14T05:21:15.266Z,76.97
2023-02-14T05:23:42.258Z,71.60
2023-02-14T05:26:09.278Z,96.37
2023-02-14T05:28:36.737Z,84.50
2023-02-14T05:31:03.926Z,87.70
2023-02-14T05:33:30.804Z,85.80
2023-02-14T05:36:00.402Z,86.07
2023-02-14T05:38:27.180Z,81.13
2023-02-14T05:40:53.923Z,84.00
2023-02-14T05:43:20.930Z,87.87
2023-02-14T05:45:48.778Z,101.20
2023-02-14T05:48:15.709Z,80.53
2023-02-14T05:50:45.610Z,94.60
2023-02-14T05:53:13.372Z,85.70
2023-02-14T05:55:40.481Z,86.27
2023-02-14T05:58:07.919Z,89.83
2023-02-14T06:00:34.970Z,85.57
2023-02-14T06:03:01.731Z,98.63
2023-02-14T06:05:28.590Z,82.07
2023-02-14T06:07:55.401Z,78.03
2023-02-14T06:10:24.553Z,89.73
2023-02-14T06:12:53.219Z,81.43
2023-02-14T06:15:20.449Z,79.87
2023-02-14T06:17:57.566Z,78.73
2023-02-14T06:20:25.277Z,97.73
2023-02-14T06:22:52.700Z,70.37
2023-02-14T06:25:21.782Z,88.30
2023-02-14T06:27:49.483Z,81.83
2023-02-14T06:30:17.610Z,68.13
2023-02-14T06:32:44.541Z,67.80
2023-02-14T06:35:11.304Z,83.20
2023-02-14T06:37:38.887Z,87.13
2023-02-14T06:40:06.301Z,126.40
2023-02-14T06:42:33.023Z,113.77
2023-02-14T06:44:59.815Z,120.73
2023-02-14T06:47:26.531Z,88.83
2023-02-14T06:49:53.225Z,136.93
2023-02-14T06:52:20.018Z,137.97
2023-02-14T06:54:46.728Z,100.90
2023-02-14T06:57:13.618Z,103.67
2023-02-14T06:59:40.415Z,97.77
2023-02-14T07:02:07.110Z,89.93
2023-02-14T07:04:33.804Z,149.50
2023-02-14T07:07:01.467Z,158.60
2023-02-14T07:09:28.208Z,100.63
2023-02-14T07:11:54.915Z,84.13
2023-02-14T07:14:21.806Z,127.60
2023-02-14T07:16:48.582Z,148.60
2023-02-14T07:19:15.364Z,120.63
2023-02-14T07:21:42.171Z,102.07
2023-02-14T07:24:09.117Z,84.63
2023-02-14T07:26:35.808Z,79.27
2023-02-14T07:29:02.795Z,98.83
2023-02-14T07:31:29.647Z,87.90
2023-02-14T07:34:00.775Z,134.87
2023-02-14T07:36:27.893Z,80.87
2023-02-14T07:38:56.692Z,75.50
2023-02-14T07:41:23.660Z,130.33
2023-02-14T07:43:50.403Z,82.23
2023-02-14T07:46:17.566Z,88.97
2023-02-14T07:48:44.526Z,78.90
2023-02-14T07:51:11.315Z,119.43
2023-02-14T07:53:38.072Z,120.80
2023-02-14T07:56:05.017Z,110.67
2023-02-14T07:58:31.857Z,138.17
2023-02-14T08:00:59.014Z,164.17
2023-02-14T08:03:25.924Z,117.23
2023-02-14T08:05:57.278Z,63.83
2023-02-14T08:08:29.009Z,70.97
2023-02-14T08:10:55.927Z,123.53
2023-02-14T08:13:23.139Z,80.43
2023-02-14T08:16:05.395Z,143.23
2023-02-14T08:18:35.270Z,93.20
2023-02-14T08:21:02.586Z,67.27
2023-02-14T08:23:30.097Z,66.50
2023-02-14T08:25:57.137Z,78.17
2023-02-14T08:28:24.354Z,69.90
2023-02-14T08:30:51.575Z,95.07
2023-02-14T08:33:19.020Z,74.60
2023-02-14T08:35:45.720Z,71.90
2023-02-14T08:38:12.736Z,76.30
2023-02-14T08:40:39.950Z,72.33
2023-02-14T08:43:07.432Z,64.43
2023-02-14T08:45:34.369Z,68.27
2023-02-14T08:48:02.755Z,68.43
2023-02-14T08:50:29.669Z,89.70
2023-02-14T08:52:59.324Z,68.17
2023-02-14T08:55:26.192Z,66.30
2023-02-14T08:57:54.678Z,58.93
2023-02-14T09:00:21.891Z,64.27
2023-02-14T09:02:53.093Z,69.73
2023-02-14T09:05:21.284Z,69.27
2023-02-14T09:07:48.026Z,59.03
2023-02-14T09:10:14.793Z,60.80
2023-02-14T09:12:42.192Z,56.13
2023-02-14T09:15:10.577Z,66.10
2023-02-14T09:17:38.142Z,64.53
2023-02-14T09:20:09.940Z,60.93
2023-02-14T09:22:36.748Z,60.47
2023-02-14T09:25:03.916Z,57.00
2023-02-14T09:27:32.312Z,59.13
2023-02-14T09:29:59.294Z,56.17
2023-02-14T09:32:27.217Z,61.97
2023-02-14T09:34:54.004Z,60.70
2023-02-14T09:37:39.389Z,64.10
2023-02-14T09:40:06.628Z,70.53
2023-02-14T09:43:07.327Z,67.43
2023-02-14T09:45:35.384Z,63.27
2023-02-14T09:48:27.194Z,62.33
2023-02-14T09:51:06.018Z,59.23
2023-02-14T09:53:38.451Z,52.10
2023-02-14T09:56:51.421Z,59.80
2023-02-14T09:59:35.839Z,65.23
2023-02-14T10:02:22.612Z,61.73
2023-02-14T10:05:07.110Z,60.60
2023-02-14T10:07:47.920Z,67.07
2023-02-14T10:10:43.186Z,55.63
2023-02-14T10:13:39.521Z,59.13
2023-02-14T10:16:21.171Z,67.90
2023-02-14T10:19:15.359Z,54.30
2023-02-14T10:21:48.411Z,58.17
2023-02-14T10:24:39.522Z,51.73
2023-02-14T10:27:22.761Z,49.70
2023-02-14T10:29:49.516Z,49.93
2023-02-14T10:32:25.094Z,48.63
2023-02-14T10:34:56.450Z,54.30
2023-02-14T10:37:26.324Z,57.13
2023-02-14T10:40:09.276Z,54.50
2023-02-14T10:42:54.636Z,62.50
2023-02-14T10:45:39.216Z,71.57
2023-02-14T10:48:13.503Z,67.83
2023-02-14T10:51:07.068Z,88.90
2023-02-14T10:54:11.264Z,100.47
2023-02-14T10:56:43.440Z,59.57
2023-02-14T10:59:25.706Z,50.23
2023-02-14T11:01:54.782Z,48.07
2023-02-14T11:04:24.080Z,46.67
2023-02-14T11:06:51.592Z,46.30
2023-02-14T11:09:19.322Z,47.63
2023-02-14T11:11:59.437Z,50.87
2023-02-14T11:14:32.750Z,50.17
2023-02-14T11:17:00.797Z,51.37
2023-02-14T11:19:38.781Z,50.10
2023-02-14T11:22:06.077Z,50.57
2023-02-14T11:24:41.593Z,50.83
2023-02-14T11:27:18.647Z,52.40
2023-02-14T11:29:52.228Z,49.10
2023-02-14T11:32:24.309Z,46.40
2023-02-14T11:35:19.581Z,49.20
2023-02-14T11:37:51.182Z,51.93
2023-02-14T11:40:38.162Z,49.53
2023-02-14T11:43:14.222Z,51.80
2023-02-14T11:45:47.388Z,45.20
2023-02-14T11:48:36.736Z,49.43
2023-02-14T11:51:06.193Z,46.17
2023-02-14T11:53:49.215Z,47.43
2023-02-14T11:56:18.017Z,51.20
2023-02-14T11:58:44.693Z,48.03
2023-02-14T12:01:24.479Z,46.40
2023-02-14T12:03:53.048Z,51.07
2023-02-14T12:06:25.526Z,55.07
2023-02-14T12:08:52.411Z,50.97
2023-02-14T12:11:23.909Z,51.23
2023-02-14T12:13:55.628Z,47.17
2023-02-14T12:16:29.102Z,53.20
2023-02-14T12:19:24.421Z,50.37
2023-02-14T12:21:58.113Z,50.33
2023-02-14T12:24:32.395Z,47.00
2023-02-14T12:27:05.134Z,48.93
2023-02-14T12:29:41.097Z,46.67
2023-02-14T12:32:21.448Z,53.73
2023-02-14T12:34:50.580Z,54.23
2023-02-14T12:37:20.499Z,43.87
2023-02-14T12:40:02.021Z,47.27
2023-02-14T12:42:38.163Z,47.40
2023-02-14T12:45:12.759Z,51.13
2023-02-14T12:47:51.349Z,45.30
2023-02-14T12:50:23.178Z,45.73
2023-02-14T12:53:15.895Z,48.73
2023-02-14T12:56:08.584Z,43.57
2023-02-14T12:58:53.687Z,45.17
2023-02-14T13:02:03.727Z,47.17
2023-02-14T13:04:48.271Z,42.70
2023-02-14T13:07:38.204Z,40.37
2023-02-14T13:10:34.420Z,45.90
2023-02-14T13:13:51.302Z,45.10
2023-02-14T13:16:26.256Z,45.40
2023-02-14T13:18:59.744Z,42.63
2023-02-14T13:21:31.671Z,45.37
2023-02-14T13:24:25.638Z,40.13
2023-02-14T13:26:56.872Z,48.57
2023-02-14T13:29:27.398Z,39.23
2023-02-14T13:31:58.750Z,35.70
2023-02-14T13:34:33.777Z,37.00
2023-02-14T13:37:03.071Z,32.10
2023-02-14T13:40:05.136Z,35.80
2023-02-14T13:42:56.061Z,36.60
2023-02-14T13:45:40.756Z,36.47
2023-02-14T13:48:13.937Z,36.90
2023-02-14T13:51:01.274Z,32.50
2023-02-14T13:53:47.011Z,38.07
2023-02-14T13:56:15.367Z,50.03
2023-02-14T13:58:49.551Z,35.53
2023-02-14T14:01:47.922Z,39.03
2023-02-14T14:04:30.227Z,35.00
2023-02-14T14:07:02.839Z,37.60
2023-02-14T14:09:45.409Z,35.97
2023-02-14T14:12:27.317Z,36.00
2023-02-14T14:15:06.105Z,32.97
2023-02-14T14:17:44.489Z,38.70
2023-02-14T14:20:18.766Z,38.60
2023-02-14T14:22:54.890Z,31.07
2023-02-14T14:25:31.973Z,31.10
2023-02-14T14:28:00.310Z,31.60
2023-02-14T14:30:32.080Z,32.23
2023-02-14T14:33:27.780Z,31.13
2023-02-14T14:36:08.376Z,30.23
2023-02-14T14:38:47.048Z,28.73
2023-02-14T14:41:17.678Z,27.67
2023-02-14T14:43:44.619Z,28.80
2023-02-14T14:46:14.349Z,28.23
2023-02-14T14:48:54.408Z,30.20
2023-02-14T14:51:32.327Z,32.80
2023-02-14T14:54:13.704Z,31.27
2023-02-14T14:56:50.818Z,29.40
2023-02-14T14:59:37.364Z,36.57
2023-02-14T15:02:20.461Z,37.70
2023-02-14T15:04:47.249Z,33.90
2023-02-14T15:07:18.451Z,31.77
2023-02-14T15:09:45.980Z,30.50
2023-02-14T15:12:35.567Z,28.93
2023-02-14T15:15:02.460Z,31.77
2023-02-14T15:17:32.343Z,32.33
2023-02-14T15:20:05.596Z,34.77
2023-02-14T15:22:45.606Z,38.97
2023-02-14T15:25:21.611Z,50.57
2023-02-14T15:27:49.225Z,42.57
2023-02-14T15:30:25.254Z,34.13
2023-02-14T15:32:52.901Z,32.13
2023-02-14T15:35:25.462Z,41.73
2023-02-14T15:37:52.848Z,39.73
2023-02-14T15:40:28.170Z,37.03
2023-02-14T15:42:58.987Z,31.47
2023-02-14T15:45:26.202Z,32.00
2023-02-14T15:48:05.325Z,37.97
2023-02-14T15:50:33.630Z,30.33
2023-02-14T15:53:06.139Z,31.73
2023-02-14T15:55:34.288Z,31.73
2023-02-14T15:58:05.639Z,33.10
2023-02-14T16:00:33.736Z,33.73
2023-02-14T16:03:04.909Z,38.83
2023-02-14T16:05:31.878Z,37.77
2023-02-14T16:08:08.014Z,37.43
2023-02-14T16:10:37.612Z,45.20
2023-02-14T16:13:20.379Z,46.60
2023-02-14T16:16:03.692Z,39.73
2023-02-14T16:18:39.385Z,39.57
2023-02-14T16:21:27.921Z,39.97
2023-02-14T16:24:10.801Z,40.13
2023-02-14T16:26:45.256Z,41.53
2023-02-14T16:29:15.496Z,42.10
2023-02-14T16:32:06.245Z,40.17
2023-02-14T16:34:32.410Z,43.43
2023-02-14T16:37:07.381Z,41.07
2023-02-14T16:39:35.313Z,42.67
2023-02-14T16:42:03.866Z,36.30
2023-02-14T16:44:30.681Z,39.83
2023-02-14T16:46:57.380Z,36.00
2023-02-14T16:49:24.339Z,36.17
2023-02-14T16:51:53.340Z,34.43
2023-02-14T16:54:23.083Z,35.73
2023-02-14T16:56:54.265Z,38.87
2023-02-14T16:59:21.076Z,35.03
2023-02-14T17:01:48.813Z,35.97
2023-02-14T17:04:15.866Z,32.60
2023-02-14T17:06:48.932Z,38.00
2023-02-14T17:09:18.081Z,36.30
2023-02-14T17:11:48.695Z,34.30
2023-02-14T17:14:19.790Z,33.13
2023-02-14T17:16:46.653Z,34.83
2023-02-14T17:19:13.679Z,35.03
2023-02-14T17:21:41.006Z,32.93
2023-02-14T17:24:07.957Z,36.63
2023-02-14T17:26:35.125Z,34.50
2023-02-14T17:29:01.873Z,34.57
2023-02-14T17:31:28.812Z,35.60
2023-02-14T17:33:55.736Z,35.50
2023-02-14T17:36:24.124Z,35.10
2023-02-14T17:38:53.611Z,41.00
2023-02-14T17:41:23.162Z,38.77
2023-02-14T17:43:50.786Z,38.53
2023-02-14T17:46:20.905Z,36.23
2023-02-14T17:48:49.040Z,35.73
2023-02-14T17:51:17.995Z,38.57
2023-02-14T17:53:44.881Z,36.20
2023-02-14T17:56:20.402Z,35.87
2023-02-14T17:58:48.692Z,40.80
2023-02-14T18:01:17.946Z,36.07
2023-02-14T18:03:44.980Z,36.17
2023-02-14T18:06:13.925Z,32.67
2023-02-14T18:08:46.148Z,61.27
2023-02-14T18:11:14.003Z,38.63
2023-02-14T18:13:40.932Z,35.23
2023-02-14T18:16:10.333Z,34.13
2023-02-14T18:18:38.040Z,34.37
2023-02-14T18:21:07.673Z,34.20
2023-02-14T18:23:34.879Z,33.60
2023-02-14T18:26:04.969Z,33.80
2023-02-14T18:28:32.836Z,34.43
2023-02-14T18:31:05.218Z,36.33
2023-02-14T18:33:32.073Z,37.10
2023-02-14T18:36:02.293Z,32.73
2023-02-14T18:38:29.144Z,38.57
2023-02-14T18:40:55.906Z,36.70
2023-02-14T18:43:22.661Z,36.73
2023-02-14T18:45:49.451Z,42.10
2023-02-14T18:48:16.398Z,38.83
2023-02-14T18:50:43.074Z,41.50
2023-02-14T18:53:09.837Z,36.57
2023-02-14T18:55:38.085Z,46.43
2023-02-14T18:58:07.722Z,35.73
2023-02-14T19:00:35.017Z,38.80
2023-02-14T19:03:01.801Z,40.17
2023-02-14T19:05:28.631Z,44.17
2023-02-14T19:07:58.116Z,36.93
2023-02-14T19:10:25.016Z,40.43
2023-02-14T19:12:52.557Z,40.40
2023-02-14T19:15:19.340Z,39.37
2023-02-14T19:17:46.116Z,40.07
2023-02-14T19:20:13.393Z,40.23
2023-02-14T19:22:41.201Z,41.07
2023-02-14T19:25:08.919Z,42.97
2023-02-14T19:27:36.971Z,40.10
2023-02-14T19:30:03.980Z,40.03
2023-02-14T19:32:31.242Z,41.43
2023-02-14T19:34:57.994Z,42.33
2023-02-14T19:37:26.707Z,45.80
2023-02-14T19:39:53.652Z,49.10
2023-02-14T19:42:22.496Z,43.60
2023-02-14T19:44:49.791Z,49.87
2023-02-14T19:47:30.913Z,43.67
2023-02-14T19:50:03.988Z,44.73
2023-02-14T19:52:30.791Z,44.50
2023-02-14T19:54:57.680Z,52.07
2023-02-14T19:57:25.119Z,49.30
2023-02-14T19:59:51.849Z,52.60
2023-02-14T20:02:19.839Z,47.77
2023-02-14T20:04:47.014Z,45.20
2023-02-14T20:07:13.882Z,52.33
2023-02-14T20:09:40.595Z,50.93
2023-02-14T20:12:07.754Z,47.63
2023-02-14T20:14:49.852Z,48.40
2023-02-14T20:17:17.968Z,48.27
2023-02-14T20:19:45.139Z,50.47
2023-02-14T20:22:12.003Z,47.30
2023-02-14T20:24:38.765Z,52.97
2023-02-14T20:27:05.809Z,50.20
2023-02-14T20:29:33.193Z,50.43
2023-02-14T20:32:01.463Z,45.90
2023-02-14T20:34:29.490Z,55.60
2023-02-14T20:36:56.501Z,49.70
2023-02-14T20:39:28.686Z,52.37
2023-02-14T20:41:55.428Z,49.47
2023-02-14T20:44:22.309Z,50.40
2023-02-14T20:46:51.725Z,50.23
2023-02-14T20:49:20.090Z,48.73
2023-02-14T20:51:49.639Z,50.57
2023-02-14T20:54:18.832Z,48.93
2023-02-14T20:56:46.208Z,54.53
2023-02-14T20:59:13.477Z,53.57
2023-02-14T21:01:40.565Z,62.60
2023-02-14T21:04:07.614Z,54.30
2023-02-14T21:06:36.939Z,53.57
2023-02-14T21:09:04.728Z,51.27
2023-02-14T21:11:31.516Z,51.30
2023-02-14T21:14:00.047Z,50.27
2023-02-14T21:16:28.551Z,56.10
2023-02-14T21:18:59.137Z,48.53
2023-02-14T21:21:32.650Z,50.23
2023-02-14T21:24:05.460Z,52.53
2023-02-14T21:26:32.311Z,47.70
2023-02-14T21:28:59.161Z,45.57
2023-02-14T21:31:26.103Z,48.07
2023-02-14T21:33:57.938Z,45.87
2023-02-14T21:36:26.947Z,46.17
2023-02-14T21:38:56.020Z,47.60
2023-02-14T21:41:24.737Z,45.93
2023-02-14T21:43:53.050Z,49.17
2023-02-14T21:46:27.335Z,47.30
2023-02-14T21:49:14.129Z,42.67
2023-02-14T21:51:41.567Z,45.53
2023-02-14T21:54:09.098Z,51.43
2023-02-14T21:56:37.152Z,52.83
2023-02-14T21:59:04.516Z,49.47
2023-02-14T22:01:33.469Z,51.13
2023-02-14T22:04:01.137Z,53.10
2023-02-14T22:06:28.617Z,51.67
2023-02-14T22:08:56.914Z,52.20
2023-02-14T22:11:24.864Z,49.23
2023-02-14T22:13:51.788Z,57.27
2023-02-14T22:16:20.855Z,53.17
2023-02-14T22:18:48.135Z,57.67
2023-02-14T22:21:22.380Z,61.77
2023-02-14T22:23:49.700Z,52.27
2023-02-14T22:26:28.374Z,54.47
2023-02-14T22:28:59.159Z,55.80
2023-02-14T22:31:27.854Z,69.53
2023-02-14T22:33:54.967Z,60.47
2023-02-14T22:36:22.217Z,129.47
2023-02-14T22:38:49.248Z,69.73
2023-02-14T22:41:18.512Z,51.67
2023-02-14T22:43:45.926Z,61.77
2023-02-14T22:46:18.153Z,58.20
2023-02-14T22:48:45.217Z,66.40
2023-02-14T22:51:17.647Z,67.90
2023-02-14T22:53:44.371Z,75.07
2023-02-14T22:56:14.146Z,48.97
2023-02-14T22:58:41.458Z,59.07
2023-02-14T23:01:17.320Z,76.20
2023-02-14T23:03:45.149Z,113.97
2023-02-14T23:06:12.764Z,47.80
2023-02-14T23:08:44.097Z,68.90
2023-02-14T23:11:14.374Z,50.13
2023-02-14T23:13:59.930Z,124.53
2023-02-14T23:16:45.451Z,70.70
2023-02-14T23:19:42.768Z,69.10
2023-02-14T23:22:12.992Z,48.83
2023-02-14T23:24:39.955Z,71.30
2023-02-14T23:27:07.959Z,53.57
2023-02-14T23:29:35.455Z,83.87
2023-02-14T23:32:02.805Z,74.93
2023-02-14T23:34:32.565Z,73.73
2023-02-14T23:36:59.719Z,48.13
2023-02-14T23:39:26.521Z,68.07
2023-02-14T23:41:53.494Z,59.57
2023-02-14T23:44:24.531Z,50.17
2023-02-14T23:46:56.601Z,83.13
2023-02-14T23:49:24.909Z,45.07
2023-02-14T23:51:53.474Z,52.57
2023-02-14T23:54:21.411Z,64.17
2023-02-14T23:56:48.355Z,55.47
2023-02-14T23:59:16.284Z,86.23
